Time;durP1;ratioP1;P1;durP2;ratioP2;P2;SDS_P1;SDS_P2;PMS_P1;PMS_P2;Temp;Humidity;BMP_temperature;BMP_pressure;BME280_temperature;BME280_humidity;BME280_pressure;Samples;Min_cycle;Max_cycle;Signal;HPM_P1;HPM_P2
2022/12/07 00:01:48;;;;;;;40.20;19.50;;;2.80;99.90;;;;;;5052113;28;20453;-65
2022/12/07 00:04:17;;;;;;;38.50;19.60;;;2.80;99.90;;;;;;5051990;28;20464;-65
2022/12/07 00:06:46;;;;;;;37.33;19.17;;;2.80;99.90;;;;;;5051943;28;20454;-65
2022/12/07 00:09:15;;;;;;;42.50;19.80;;;2.80;99.90;;;;;;5051888;28;20449;-65
2022/12/07 00:11:44;;;;;;;41.90;19.97;;;2.80;99.90;;;;;;5051606;28;20496;-65
2022/12/07 00:14:14;;;;;;;38.53;18.57;;;2.80;99.90;;;;;;5051667;28;20466;-65
2022/12/07 00:16:41;;;;;;;40.90;19.83;;;2.80;99.90;;;;;;5051207;28;20457;-65
2022/12/07 00:19:08;;;;;;;44.63;21.33;;;2.80;99.90;;;;;;5051739;28;20495;-65
2022/12/07 00:21:36;;;;;;;45.13;18.20;;;2.80;99.90;;;;;;5051472;28;20450;-65
2022/12/07 00:24:05;;;;;;;37.57;19.10;;;2.90;99.90;;;;;;5051762;28;20476;-65
2022/12/07 00:26:33;;;;;;;43.20;20.60;;;2.90;99.90;;;;;;5051621;28;20449;-65
2022/12/07 00:29:03;;;;;;;35.90;17.97;;;2.90;99.90;;;;;;5051694;28;20449;-65
2022/12/07 00:31:34;;;;;;;35.27;18.03;;;3.00;99.90;;;;;;5051471;28;20480;-65
2022/12/07 00:34:01;;;;;;;39.00;19.60;;;3.00;99.90;;;;;;5051212;28;20467;-65
2022/12/07 00:36:28;;;;;;;43.03;20.30;;;3.00;99.90;;;;;;5051629;28;20453;-65
2022/12/07 00:38:56;;;;;;;38.83;18.63;;;3.00;99.90;;;;;;5051655;28;20449;-65
2022/12/07 00:41:24;;;;;;;42.27;20.23;;;3.00;99.90;;;;;;5051511;28;20456;-65
2022/12/07 00:43:51;;;;;;;41.50;19.90;;;3.00;99.90;;;;;;5051278;28;20504;-65
2022/12/07 00:46:20;;;;;;;34.50;18.33;;;3.00;99.90;;;;;;5051362;28;20451;-65
2022/12/07 00:48:48;;;;;;;37.77;18.07;;;3.00;99.90;;;;;;5051398;28;20468;-65
2022/12/07 00:51:17;;;;;;;43.33;19.30;;;3.00;99.90;;;;;;5051406;28;20485;-65
2022/12/07 00:53:44;;;;;;;35.87;18.00;;;3.00;99.90;;;;;;5051314;28;20453;-65
2022/12/07 00:56:14;;;;;;;35.23;18.33;;;3.00;99.90;;;;;;5051230;28;20464;-66
2022/12/07 00:58:41;;;;;;;38.03;19.60;;;3.00;99.90;;;;;;5051335;28;20478;-65
2022/12/07 01:01:09;;;;;;;33.83;17.70;;;3.00;99.90;;;;;;5051016;28;20506;-65
2022/12/07 01:03:38;;;;;;;35.03;16.70;;;3.00;99.90;;;;;;5051133;28;20934;-65
2022/12/07 01:06:05;;;;;;;34.77;17.63;;;3.00;99.90;;;;;;5051240;28;20454;-65
2022/12/07 01:08:34;;;;;;;44.10;18.70;;;3.10;99.90;;;;;;5051366;28;20441;-65
2022/12/07 01:11:03;;;;;;;39.23;18.27;;;3.10;99.90;;;;;;5050988;28;20484;-66
2022/12/07 01:13:30;;;;;;;37.50;17.80;;;3.10;99.90;;;;;;5051060;28;20449;-65
2022/12/07 01:15:59;;;;;;;39.03;18.30;;;3.10;99.90;;;;;;5050457;28;20452;-66
2022/12/07 01:18:27;;;;;;;39.07;18.93;;;3.10;99.90;;;;;;5051080;28;21019;-66
2022/12/07 01:21:03;;;;;;;36.23;16.57;;;3.10;99.90;;;;;;5051087;28;20542;-65
2022/12/07 01:23:31;;;;;;;28.60;14.10;;;3.10;99.90;;;;;;5050872;28;20449;-65
2022/12/07 01:25:58;;;;;;;29.10;15.20;;;3.10;99.90;;;;;;5051071;28;20456;-65
2022/12/07 01:28:25;;;;;;;23.27;13.33;;;3.10;99.90;;;;;;5051219;28;20454;-65
2022/12/07 01:30:59;;;;;;;24.10;12.70;;;3.20;99.90;;;;;;5050907;28;20477;-65
2022/12/07 01:33:28;;;;;;;17.97;10.17;;;3.20;99.90;;;;;;5050999;28;20652;-65
2022/12/07 01:35:55;;;;;;;21.97;9.50;;;3.30;99.90;;;;;;5050810;28;20477;-65
2022/12/07 01:38:23;;;;;;;18.23;9.80;;;3.30;99.90;;;;;;5053817;28;20452;-66
2022/12/07 01:40:55;;;;;;;17.80;9.80;;;3.30;99.90;;;;;;5054692;28;20813;-65
2022/12/07 01:43:24;;;;;;;16.60;9.07;;;3.40;99.90;;;;;;5054954;28;20874;-65
2022/12/07 01:45:51;;;;;;;18.17;9.50;;;3.30;99.90;;;;;;5054511;28;20535;-65
2022/12/07 01:48:23;;;;;;;16.43;8.57;;;3.30;99.90;;;;;;5054560;28;20452;-65
2022/12/07 01:50:51;;;;;;;16.80;8.90;;;3.30;99.90;;;;;;5054120;28;20489;-65
2022/12/07 01:53:19;;;;;;;13.17;7.70;;;3.30;99.90;;;;;;5054724;28;20448;-65
2022/12/07 01:55:50;;;;;;;15.13;8.10;;;3.20;99.90;;;;;;5054176;28;20488;-65
2022/12/07 01:58:17;;;;;;;11.50;7.23;;;3.20;99.90;;;;;;5054832;28;20447;-65
2022/12/07 02:00:44;;;;;;;11.07;6.53;;;3.20;99.90;;;;;;5054281;28;20453;-65
2022/12/07 02:03:18;;;;;;;12.50;7.10;;;3.20;99.90;;;;;;5054222;28;20458;-65
2022/12/07 02:05:46;;;;;;;13.50;7.13;;;3.30;99.90;;;;;;5054185;28;20473;-65
2022/12/07 02:08:13;;;;;;;11.80;7.40;;;3.30;99.90;;;;;;5054374;28;20449;-65
2022/12/07 02:10:40;;;;;;;14.20;7.30;;;3.30;99.90;;;;;;5053979;28;20534;-65
2022/12/07 02:13:13;;;;;;;12.13;7.60;;;3.30;99.90;;;;;;5054186;28;20449;-65
2022/12/07 02:15:51;;;;;;;12.10;7.60;;;3.30;99.90;;;;;;5053325;28;20824;-65
2022/12/07 02:18:24;;;;;;;11.73;7.43;;;3.20;99.90;;;;;;5054107;28;20452;-65
2022/12/07 02:20:58;;;;;;;16.00;7.70;;;3.20;99.90;;;;;;5053992;28;20442;-65
2022/12/07 02:23:41;;;;;;;12.60;7.70;;;3.20;99.90;;;;;;5053960;28;20511;-65
2022/12/07 02:26:26;;;;;;;13.90;7.00;;;3.20;99.90;;;;;;5052938;28;20561;-65
2022/12/07 02:29:14;;;;;;;15.17;7.00;;;3.20;99.90;;;;;;5053967;28;20449;-65
2022/12/07 02:31:47;;;;;;;14.20;6.87;;;3.20;99.90;;;;;;5053618;28;20485;-65
2022/12/07 02:34:21;;;;;;;13.37;6.90;;;3.20;99.90;;;;;;5053621;28;20473;-65
2022/12/07 02:36:53;;;;;;;14.27;7.47;;;3.20;99.90;;;;;;5053508;28;20965;-65
2022/12/07 02:39:26;;;;;;;10.90;6.90;;;3.20;99.90;;;;;;5053872;28;20451;-65
2022/12/07 02:41:56;;;;;;;10.20;7.30;;;3.20;99.90;;;;;;5053882;28;20453;-65
2022/12/07 02:44:27;;;;;;;13.27;7.00;;;3.30;99.90;;;;;;5053433;28;20476;-66
2022/12/07 02:46:58;;;;;;;9.63;6.77;;;3.30;99.90;;;;;;5053282;28;20457;-67
2022/12/07 02:49:27;;;;;;;8.87;6.70;;;3.30;99.90;;;;;;5052210;28;20942;-65
2022/12/07 02:51:54;;;;;;;14.67;7.77;;;3.30;99.90;;;;;;5053592;28;20837;-65
2022/12/07 02:54:22;;;;;;;12.73;7.63;;;3.30;99.90;;;;;;5053200;28;20997;-66
2022/12/07 02:56:52;;;;;;;13.60;7.77;;;3.30;99.90;;;;;;5052981;28;20461;-65
2022/12/07 02:59:30;;;;;;;11.47;8.10;;;3.30;99.90;;;;;;5053674;28;20457;-65
2022/12/07 03:02:08;;;;;;;13.97;8.77;;;3.20;99.90;;;;;;5053185;28;20454;-65
2022/12/07 03:04:43;;;;;;;13.83;8.10;;;3.20;99.90;;;;;;5053046;28;20473;-65
2022/12/07 03:07:19;;;;;;;18.50;9.13;;;3.20;99.90;;;;;;5053052;28;20448;-65
2022/12/07 03:09:54;;;;;;;10.10;6.57;;;3.20;99.90;;;;;;5053044;28;20452;-64
2022/12/07 03:12:29;;;;;;;13.07;8.33;;;3.20;99.90;;;;;;5052990;28;20480;-66
2022/12/07 03:15:06;;;;;;;15.73;9.20;;;3.20;99.90;;;;;;5052913;28;20469;-66
2022/12/07 03:17:35;;;;;;;16.80;8.20;;;3.20;99.90;;;;;;5052431;28;20480;-66
2022/12/07 03:20:07;;;;;;;14.37;8.03;;;3.20;99.90;;;;;;5052928;28;20448;-66
2022/12/07 03:22:36;;;;;;;16.10;9.00;;;3.20;99.90;;;;;;5052910;28;20450;-66
2022/12/07 03:25:08;;;;;;;15.10;9.67;;;3.30;99.90;;;;;;5052443;28;20473;-65
2022/12/07 03:27:40;;;;;;;15.53;8.73;;;3.30;99.90;;;;;;5052674;28;21011;-65
2022/12/07 03:30:11;;;;;;;18.40;10.77;;;3.30;99.90;;;;;;5052811;28;20442;-65
2022/12/07 03:32:43;;;;;;;16.03;8.40;;;3.30;99.90;;;;;;5052637;28;20535;-66
2022/12/07 03:35:16;;;;;;;16.67;9.47;;;3.30;99.90;;;;;;5052588;28;20540;-66
2022/12/07 03:37:49;;;;;;;16.33;9.13;;;3.30;99.90;;;;;;5052687;28;20711;-66
2022/12/07 03:40:23;;;;;;;18.70;10.17;;;3.30;99.90;;;;;;5052333;28;20475;-66
2022/12/07 03:42:51;;;;;;;15.57;9.03;;;3.30;99.90;;;;;;5052654;28;20520;-66
2022/12/07 03:45:23;;;;;;;13.17;8.10;;;3.30;99.90;;;;;;5052296;28;20476;-65
2022/12/07 03:47:56;;;;;;;13.37;8.30;;;3.40;99.90;;;;;;5052421;28;20454;-66
2022/12/07 03:50:30;;;;;;;18.67;10.00;;;3.40;99.90;;;;;;5052340;28;20446;-66
2022/12/07 03:53:00;;;;;;;14.30;8.77;;;3.40;99.90;;;;;;5051885;28;20481;-66
2022/12/07 03:55:31;;;;;;;13.00;7.80;;;3.40;99.90;;;;;;5052056;28;20484;-66
2022/12/07 03:58:01;;;;;;;16.13;8.77;;;3.40;99.90;;;;;;5052197;28;20446;-66
2022/12/07 04:00:30;;;;;;;13.50;8.43;;;3.40;99.90;;;;;;5051773;28;20453;-66
2022/12/07 04:02:57;;;;;;;14.30;8.90;;;3.40;99.90;;;;;;5051958;28;20496;-66
2022/12/07 04:05:24;;;;;;;14.50;9.30;;;3.40;99.90;;;;;;5051623;28;20985;-66
2022/12/07 04:07:51;;;;;;;16.97;9.00;;;3.40;99.90;;;;;;5052147;28;20449;-66
2022/12/07 04:10:18;;;;;;;16.23;9.07;;;3.40;99.90;;;;;;5052050;28;20452;-66
2022/12/07 04:12:44;;;;;;;17.53;9.40;;;3.40;99.90;;;;;;5051645;28;21050;-65
2022/12/07 04:15:12;;;;;;;18.57;10.07;;;3.40;99.90;;;;;;5051423;28;20472;-65
2022/12/07 04:17:40;;;;;;;19.40;9.90;;;3.40;99.90;;;;;;5051408;28;20951;-65
2022/12/07 04:20:08;;;;;;;16.50;9.90;;;3.40;99.90;;;;;;5051813;28;20449;-64
2022/12/07 04:22:34;;;;;;;22.47;10.83;;;3.40;99.90;;;;;;5051766;28;20818;-65
2022/12/07 04:25:01;;;;;;;21.07;11.47;;;3.40;99.90;;;;;;5051419;28;20473;-65
2022/12/07 04:27:28;;;;;;;24.13;12.87;;;3.40;99.90;;;;;;5051506;28;20829;-64
2022/12/07 04:29:55;;;;;;;22.57;11.03;;;3.40;99.90;;;;;;5051395;28;20454;-64
2022/12/07 04:32:22;;;;;;;28.63;12.50;;;3.40;99.90;;;;;;5051670;28;20580;-66
2022/12/07 04:34:50;;;;;;;24.47;12.20;;;3.40;99.90;;;;;;5051544;28;20470;-66
2022/12/07 04:37:17;;;;;;;21.00;11.73;;;3.40;99.90;;;;;;5051642;28;20453;-66
2022/12/07 04:39:44;;;;;;;23.13;12.53;;;3.40;99.90;;;;;;5051659;28;20445;-66
2022/12/07 04:42:12;;;;;;;22.77;11.13;;;3.40;99.90;;;;;;5051332;28;20535;-67
2022/12/07 04:44:39;;;;;;;22.20;12.13;;;3.50;99.90;;;;;;5051165;28;20479;-67
2022/12/07 04:47:06;;;;;;;20.90;11.30;;;3.50;99.90;;;;;;5051664;28;20446;-64
2022/12/07 04:49:32;;;;;;;20.37;11.50;;;3.50;99.90;;;;;;5051812;28;20472;-64
2022/12/07 04:52:00;;;;;;;23.17;11.00;;;3.50;99.90;;;;;;5051217;28;20502;-67
2022/12/07 04:54:27;;;;;;;18.83;10.17;;;3.50;99.90;;;;;;5051328;28;20607;-65
2022/12/07 04:56:54;;;;;;;18.57;11.10;;;3.50;99.90;;;;;;5050889;28;20513;-65
2022/12/07 04:59:20;;;;;;;15.67;10.30;;;3.50;99.90;;;;;;5051443;28;20450;-65
2022/12/07 05:01:47;;;;;;;16.80;10.33;;;3.50;99.90;;;;;;5051166;28;20981;-65
2022/12/07 05:04:15;;;;;;;21.53;12.00;;;3.50;99.90;;;;;;5051431;28;20472;-65
2022/12/07 05:06:42;;;;;;;19.73;9.93;;;3.50;99.90;;;;;;5051117;28;20472;-66
2022/12/07 05:09:10;;;;;;;20.33;12.20;;;3.50;99.90;;;;;;5051339;28;20452;-65
2022/12/07 05:11:40;;;;;;;22.80;12.33;;;3.50;99.90;;;;;;5051006;28;21116;-67
2022/12/07 05:14:11;;;;;;;18.03;11.17;;;3.50;99.90;;;;;;5055283;28;20558;-65
2022/12/07 05:16:38;;;;;;;23.43;12.10;;;3.50;99.90;;;;;;5054690;28;20509;-66
2022/12/07 05:19:05;;;;;;;20.57;11.43;;;3.50;99.90;;;;;;5055208;28;20500;-66
2022/12/07 05:21:32;;;;;;;19.97;12.37;;;3.50;99.90;;;;;;5054871;28;20451;-65
2022/12/07 05:23:59;;;;;;;21.70;12.17;;;3.50;99.90;;;;;;5055088;28;20464;-65
2022/12/07 05:26:27;;;;;;;23.47;12.60;;;3.50;99.90;;;;;;5055013;28;20449;-65
2022/12/07 05:28:54;;;;;;;20.87;11.43;;;3.50;99.90;;;;;;5054968;28;20496;-65
2022/12/07 05:31:22;;;;;;;19.97;11.90;;;3.50;99.90;;;;;;5054950;28;20453;-65
2022/12/07 05:33:49;;;;;;;22.27;11.80;;;3.50;99.90;;;;;;5054706;28;20453;-65
2022/12/07 05:36:15;;;;;;;21.97;12.40;;;3.50;99.90;;;;;;5054520;28;20453;-65
2022/12/07 05:38:42;;;;;;;20.67;11.90;;;3.50;99.90;;;;;;5054625;28;20522;-65
2022/12/07 05:42:11;;;;;;;21.97;12.63;;;3.60;99.90;;;;;;5054731;28;20450;-65
2022/12/07 05:44:00;;;;;;;24.60;13.13;;;3.50;99.90;;;;;;5054834;28;21027;-65
2022/12/07 05:46:27;;;;;;;29.60;14.93;;;3.50;99.90;;;;;;5054383;28;20449;-65
2022/12/07 05:48:54;;;;;;;26.20;14.30;;;3.60;99.90;;;;;;5054548;28;20772;-65
2022/12/07 05:51:21;;;;;;;26.03;13.90;;;3.60;99.90;;;;;;5054615;28;20452;-65
2022/12/07 05:53:48;;;;;;;25.43;13.23;;;3.60;99.90;;;;;;5054154;28;20485;-65
2022/12/07 05:56:15;;;;;;;24.70;13.53;;;3.60;99.90;;;;;;5054182;28;20838;-65
2022/12/07 06:01:27;;;;;;;25.00;12.90;;;3.60;99.90;;;;;;5054569;28;20440;-65
2022/12/07 06:03:54;;;;;;;27.07;13.53;;;3.60;99.90;;;;;;5054332;28;20465;-65
2022/12/07 06:06:21;;;;;;;22.40;12.30;;;3.60;99.90;;;;;;5054200;28;20446;-65
2022/12/07 06:08:48;;;;;;;25.00;12.73;;;3.50;99.90;;;;;;5054204;28;20446;-65
2022/12/07 06:13:58;;;;;;;21.67;10.50;;;3.50;99.90;;;;;;5053928;28;20445;-65
2022/12/07 06:16:26;;;;;;;20.60;12.00;;;3.50;99.90;;;;;;5053627;28;20444;-66
2022/12/07 06:18:53;;;;;;;21.37;11.30;;;3.60;99.90;;;;;;5053935;28;20449;-65
2022/12/07 06:21:20;;;;;;;14.87;10.23;;;3.60;99.90;;;;;;5053941;28;20481;-65
2022/12/07 06:23:47;;;;;;;18.17;11.10;;;3.60;99.90;;;;;;5053178;28;20535;-65
2022/12/07 06:26:14;;;;;;;20.67;11.33;;;3.60;99.90;;;;;;5053806;28;20445;-65
2022/12/07 06:28:41;;;;;;;20.73;11.70;;;3.60;99.90;;;;;;5053622;28;20971;-65
2022/12/07 06:31:08;;;;;;;18.07;10.33;;;3.60;99.90;;;;;;5053610;28;20510;-65
2022/12/07 06:33:36;;;;;;;17.10;9.57;;;3.70;99.90;;;;;;5053526;28;20492;-65
2022/12/07 06:36:03;;;;;;;17.37;9.50;;;3.70;99.90;;;;;;5053873;28;20447;-65
2022/12/07 06:38:30;;;;;;;16.90;10.10;;;3.70;99.90;;;;;;5053785;28;20458;-65
2022/12/07 06:40:56;;;;;;;16.07;9.37;;;3.70;99.90;;;;;;5053592;28;20454;-65
2022/12/07 06:43:23;;;;;;;16.90;9.10;;;3.70;99.90;;;;;;5053540;28;20452;-65
2022/12/07 06:45:50;;;;;;;14.33;8.53;;;3.70;99.90;;;;;;5053195;28;20979;-65
2022/12/07 06:48:17;;;;;;;15.60;9.07;;;3.70;99.90;;;;;;5053363;28;20453;-65
2022/12/07 06:50:46;;;;;;;17.33;9.63;;;3.80;99.90;;;;;;5053184;28;20456;-65
2022/12/07 06:53:13;;;;;;;14.77;8.73;;;3.80;99.90;;;;;;5053276;28;20538;-65
2022/12/07 06:55:40;;;;;;;17.63;9.07;;;3.80;99.90;;;;;;5052741;28;20488;-65
2022/12/07 06:58:06;;;;;;;17.13;9.60;;;3.80;99.90;;;;;;5053189;28;20454;-65
2022/12/07 07:00:34;;;;;;;17.87;9.47;;;3.80;99.90;;;;;;5053285;28;20495;-65
2022/12/07 07:03:01;;;;;;;17.70;10.10;;;3.80;99.90;;;;;;5052912;28;20450;-66
2022/12/07 07:05:28;;;;;;;14.20;9.00;;;3.80;99.90;;;;;;5053005;28;20472;-66
2022/12/07 07:07:56;;;;;;;22.23;9.63;;;3.80;99.90;;;;;;5053127;28;20448;-66
2022/12/07 07:10:22;;;;;;;15.87;9.83;;;3.80;99.90;;;;;;5052921;28;20455;-66
2022/12/07 07:12:49;;;;;;;14.10;9.20;;;3.80;99.90;;;;;;5052875;28;21031;-66
2022/12/07 07:15:16;;;;;;;20.90;10.60;;;3.90;99.90;;;;;;5052260;28;20476;-65
2022/12/07 07:17:42;;;;;;;17.83;9.47;;;3.90;99.90;;;;;;5053099;28;20454;-66
2022/12/07 07:20:10;;;;;;;14.10;9.00;;;3.90;99.90;;;;;;5052885;28;20450;-66
2022/12/07 07:22:37;;;;;;;17.10;9.77;;;3.80;99.90;;;;;;5052952;28;20451;-66
2022/12/07 07:25:05;;;;;;;14.17;8.73;;;3.80;99.90;;;;;;5052462;28;20474;-66
2022/12/07 07:27:32;;;;;;;15.50;9.67;;;3.80;99.90;;;;;;5052831;28;20550;-66
2022/12/07 07:29:58;;;;;;;15.17;9.67;;;3.80;99.90;;;;;;5052416;28;20523;-65
2022/12/07 07:32:25;;;;;;;22.47;10.27;;;3.80;99.90;;;;;;5052813;28;20488;-66
2022/12/07 07:34:52;;;;;;;17.90;9.47;;;3.80;99.90;;;;;;5051778;28;20466;-65
2022/12/07 07:37:19;;;;;;;16.00;9.87;;;3.80;99.90;;;;;;5052707;28;20456;-65
2022/12/07 07:39:45;;;;;;;16.10;9.90;;;3.70;99.90;;;;;;5052525;28;20445;-65
2022/12/07 07:42:13;;;;;;;20.30;10.23;;;3.70;99.90;;;;;;5052418;28;20886;-66
2022/12/07 07:44:40;;;;;;;18.93;11.17;;;3.60;99.90;;;;;;5052328;28;20589;-65
2022/12/07 07:47:07;;;;;;;18.43;9.83;;;3.70;99.90;;;;;;5052625;28;20452;-66
2022/12/07 07:49:33;;;;;;;17.77;9.60;;;3.60;99.90;;;;;;5052430;28;20446;-65
2022/12/07 07:52:00;;;;;;;17.90;10.80;;;3.60;99.90;;;;;;5052359;28;20449;-66
2022/12/07 07:54:27;;;;;;;19.57;10.20;;;3.60;99.90;;;;;;5052099;28;20882;-66
2022/12/07 07:56:53;;;;;;;22.13;10.87;;;3.60;99.90;;;;;;5051905;28;20464;-66
2022/12/07 07:59:21;;;;;;;18.10;10.63;;;3.60;99.90;;;;;;5052131;28;20459;-66
2022/12/07 08:01:48;;;;;;;16.97;9.87;;;3.60;99.90;;;;;;5052224;28;20451;-67
2022/12/07 08:04:15;;;;;;;21.17;9.87;;;3.60;99.90;;;;;;5052196;28;20466;-66
2022/12/07 08:06:42;;;;;;;12.10;8.33;;;3.70;99.90;;;;;;5052065;28;20873;-66
2022/12/07 08:09:10;;;;;;;15.93;9.50;;;3.70;99.90;;;;;;5051935;28;20445;-66
2022/12/07 08:11:37;;;;;;;19.13;9.80;;;3.70;99.90;;;;;;5051766;28;20465;-66
2022/12/07 08:14:04;;;;;;;22.10;10.50;;;3.70;99.90;;;;;;5051779;28;21113;-67
2022/12/07 08:16:32;;;;;;;19.13;9.83;;;3.80;99.90;;;;;;5051932;28;20452;-66
2022/12/07 08:18:58;;;;;;;14.10;9.20;;;4.00;99.90;;;;;;5051906;28;20451;-66
2022/12/07 08:21:25;;;;;;;15.00;9.33;;;4.30;99.90;;;;;;5051736;28;20453;-66
2022/12/07 08:23:52;;;;;;;21.53;9.50;;;4.70;99.90;;;;;;5051716;28;20507;-66
2022/12/07 08:26:18;;;;;;;16.67;9.60;;;4.80;99.90;;;;;;5051657;28;20456;-66
2022/12/07 08:28:45;;;;;;;16.00;9.13;;;4.80;99.90;;;;;;5051662;28;20817;-66
2022/12/07 08:31:14;;;;;;;15.23;9.40;;;4.70;99.90;;;;;;5051724;28;20562;-66
2022/12/07 08:33:43;;;;;;;18.53;9.90;;;4.50;99.90;;;;;;5051498;28;20993;-66
2022/12/07 08:36:11;;;;;;;14.00;9.10;;;4.40;99.90;;;;;;5051444;28;20739;-66
2022/12/07 08:38:40;;;;;;;18.27;9.90;;;4.40;99.90;;;;;;5051975;28;20450;-66
2022/12/07 08:41:07;;;;;;;19.47;10.20;;;4.60;99.90;;;;;;5051604;28;20471;-66
2022/12/07 08:43:35;;;;;;;13.80;8.33;;;4.80;99.90;;;;;;5051562;28;20507;-67
2022/12/07 08:46:07;;;;;;;16.33;9.87;;;4.90;99.90;;;;;;5051322;28;20493;-66
2022/12/07 08:48:36;;;;;;;13.40;9.10;;;5.10;99.90;;;;;;5051424;28;20452;-66
2022/12/07 08:51:05;;;;;;;10.40;6.97;;;5.20;99.90;;;;;;5051544;28;20463;-66
2022/12/07 08:53:34;;;;;;;13.90;8.20;;;5.30;99.90;;;;;;5051319;28;20483;-66
2022/12/07 08:56:01;;;;;;;12.80;8.37;;;5.50;99.90;;;;;;5050928;28;20504;-66
2022/12/07 08:58:28;;;;;;;11.90;8.10;;;5.60;99.90;;;;;;5051459;28;20475;-66
2022/12/07 09:00:54;;;;;;;13.47;7.80;;;5.70;99.90;;;;;;5051233;28;20459;-66
2022/12/07 09:03:21;;;;;;;10.00;7.20;;;5.80;99.90;;;;;;5051198;28;20455;-66
2022/12/07 09:05:48;;;;;;;10.90;6.93;;;6.00;99.90;;;;;;5051266;28;20476;-66
2022/12/07 09:08:16;;;;;;;13.40;6.07;;;6.00;99.90;;;;;;5051265;28;20883;-67
2022/12/07 09:10:43;;;;;;;11.73;6.30;;;6.10;99.90;;;;;;5051219;28;20450;-66
2022/12/07 09:13:10;;;;;;;11.03;6.37;;;6.20;99.90;;;;;;5051158;28;20479;-66
2022/12/07 09:15:36;;;;;;;7.60;6.30;;;6.20;99.90;;;;;;5050527;28;20476;-66
2022/12/07 09:18:03;;;;;;;9.10;6.70;;;6.20;99.90;;;;;;5051405;28;20458;-66
2022/12/07 09:20:30;;;;;;;10.47;6.77;;;6.30;99.90;;;;;;5051171;28;20480;-67
2022/12/07 09:22:57;;;;;;;15.53;6.47;;;6.50;99.90;;;;;;5051396;28;20855;-66
2022/12/07 09:25:25;;;;;;;9.27;6.30;;;6.60;99.90;;;;;;5050928;28;20472;-66
2022/12/07 09:27:56;;;;;;;7.37;6.10;;;6.70;99.90;;;;;;5051014;28;20473;-66
2022/12/07 09:30:23;;;;;;;11.60;5.70;;;7.00;99.90;;;;;;5051262;28;20449;-66
2022/12/07 09:32:49;;;;;;;11.57;6.07;;;7.30;99.90;;;;;;5051208;28;20447;-66
2022/12/07 09:35:16;;;;;;;10.53;5.77;;;7.50;99.90;;;;;;5050927;28;20519;-66
2022/12/07 09:37:43;;;;;;;11.33;5.90;;;7.50;99.90;;;;;;5051003;28;20484;-67
2022/12/07 09:40:10;;;;;;;7.83;5.20;;;7.60;99.90;;;;;;5050927;28;20943;-67
2022/12/07 09:42:43;;;;;;;9.50;5.47;;;7.60;99.90;;;;;;5051017;28;20457;-67
2022/12/07 09:45:15;;;;;;;10.77;5.13;;;7.60;99.90;;;;;;5051000;28;20469;-66
2022/12/07 09:47:43;;;;;;;7.60;6.07;;;7.70;99.90;;;;;;5051132;28;20534;-67
2022/12/07 09:50:14;;;;;;;13.30;5.17;;;7.60;99.90;;;;;;5050916;28;20474;-66
2022/12/07 09:52:42;;;;;;;14.13;6.70;;;7.30;99.90;;;;;;5050857;28;20534;-66
2022/12/07 09:55:13;;;;;;;8.90;5.30;;;7.10;99.90;;;;;;5050457;28;21070;-66
2022/12/07 09:57:43;;;;;;;7.60;4.97;;;7.30;99.90;;;;;;5051300;28;20998;-67
2022/12/07 10:00:15;;;;;;;6.93;5.00;;;7.50;99.90;;;;;;5054377;28;20962;-66
2022/12/07 10:02:43;;;;;;;8.93;5.00;;;7.70;99.90;;;;;;5054620;28;20462;-67
2022/12/07 10:05:14;;;;;;;12.63;4.50;;;7.90;99.90;;;;;;5054118;28;20538;-66
2022/12/07 10:07:40;;;;;;;10.07;5.57;;;8.30;99.90;;;;;;5054373;28;20799;-67
2022/12/07 10:10:15;;;;;;;5.90;5.23;;;8.70;99.90;;;;;;5054297;28;20462;-66
2022/12/07 10:12:56;;;;;;;8.30;5.40;;;8.90;99.90;;;;;;5054452;28;20451;-67
2022/12/07 10:15:23;;;;;;;9.77;5.53;;;9.10;99.90;;;;;;5053612;28;20526;-66
2022/12/07 10:17:51;;;;;;;8.53;5.00;;;9.30;99.90;;;;;;5054326;28;20855;-66
2022/12/07 10:20:22;;;;;;;10.53;5.80;;;9.60;99.90;;;;;;5053768;28;20498;-66
2022/12/07 10:22:57;;;;;;;6.60;5.90;;;9.80;99.90;;;;;;5054195;28;20449;-66
2022/12/07 10:25:27;;;;;;;8.60;4.90;;;9.90;99.90;;;;;;5054175;28;20464;-66
2022/12/07 10:28:09;;;;;;;7.70;5.23;;;10.00;99.90;;;;;;5053894;28;20495;-66
2022/12/07 10:30:48;;;;;;;5.83;5.03;;;10.10;99.90;;;;;;5054057;28;20447;-66
2022/12/07 10:33:32;;;;;;;8.07;5.23;;;10.40;99.90;;;;;;5053999;28;20544;-66
2022/12/07 10:36:00;;;;;;;9.87;5.57;;;10.00;99.90;;;;;;5053589;28;20453;-66
2022/12/07 10:38:28;;;;;;;7.00;5.40;;;9.80;99.90;;;;;;5053566;28;20460;-66
2022/12/07 10:41:05;;;;;;;14.60;6.67;;;9.50;99.90;;;;;;5053844;28;20800;-66
2022/12/07 10:43:33;;;;;;;8.53;5.03;;;9.20;99.90;;;;;;5053746;28;20865;-66
2022/12/07 10:46:23;;;;;;;8.63;5.63;;;8.70;99.90;;;;;;5053557;28;20449;-66
2022/12/07 10:49:04;;;;;;;6.60;5.47;;;8.10;99.90;;;;;;5053519;28;20463;-66
2022/12/07 10:51:41;;;;;;;10.67;5.80;;;8.10;99.90;;;;;;5053560;28;20454;-66
2022/12/07 10:54:14;;;;;;;10.97;6.10;;;8.00;99.90;;;;;;5053542;28;20495;-66
2022/12/07 10:57:01;;;;;;;11.43;5.80;;;8.30;99.90;;;;;;5053126;28;20468;-66
2022/12/07 10:59:56;;;;;;;7.90;5.27;;;8.50;99.90;;;;;;5053702;28;20456;-67
2022/12/07 11:02:47;;;;;;;10.77;5.80;;;8.60;99.90;;;;;;5053329;28;20500;-66
2022/12/07 11:05:23;;;;;;;8.53;5.40;;;8.40;99.90;;;;;;5053004;28;20468;-66
2022/12/07 11:08:01;;;;;;;7.83;5.10;;;7.90;99.90;;;;;;5053390;28;20935;-66
2022/12/07 11:10:39;;;;;;;10.30;5.53;;;7.30;99.90;;;;;;5052111;28;20460;-66
2022/12/07 11:13:21;;;;;;;12.07;7.23;;;7.30;99.90;;;;;;5053162;28;20445;-66
2022/12/07 11:16:00;;;;;;;10.97;5.80;;;7.30;99.90;;;;;;5052339;28;20467;-66
2022/12/07 11:18:31;;;;;;;10.03;5.37;;;7.30;99.90;;;;;;5053194;28;20449;-66
2022/12/07 11:21:08;;;;;;;6.80;5.00;;;7.20;99.90;;;;;;5052851;28;20809;-66
2022/12/07 11:23:46;;;;;;;10.00;5.50;;;7.00;99.90;;;;;;5052722;28;20445;-66
2022/12/07 11:26:24;;;;;;;8.53;5.40;;;7.20;99.90;;;;;;5052898;28;20453;-67
2022/12/07 11:29:18;;;;;;;13.07;6.00;;;7.40;99.90;;;;;;5053094;28;20468;-66
2022/12/07 11:31:59;;;;;;;9.83;5.93;;;7.80;99.90;;;;;;5052652;28;20939;-66
2022/12/07 11:34:35;;;;;;;7.27;4.93;;;7.90;99.90;;;;;;5052844;28;20491;-66
2022/12/07 11:37:04;;;;;;;8.60;5.10;;;8.00;99.90;;;;;;5052822;28;20454;-66
2022/12/07 11:39:36;;;;;;;10.17;5.63;;;8.00;99.90;;;;;;5052806;28;20449;-67
2022/12/07 11:42:07;;;;;;;8.87;5.10;;;8.00;99.90;;;;;;5052539;28;20455;-66
2022/12/07 11:44:40;;;;;;;5.47;4.63;;;7.80;99.90;;;;;;5052316;28;20897;-66
2022/12/07 11:47:11;;;;;;;13.57;5.00;;;7.50;99.90;;;;;;5052734;28;20450;-66
2022/12/07 11:49:44;;;;;;;10.10;5.47;;;7.20;99.90;;;;;;5052473;28;20542;-66
2022/12/07 11:52:20;;;;;;;10.07;5.13;;;7.10;99.90;;;;;;5052400;28;20512;-66
2022/12/07 11:54:50;;;;;;;6.60;5.00;;;6.90;99.90;;;;;;5051948;28;20503;-66
2022/12/07 11:57:25;;;;;;;11.43;6.00;;;7.00;99.90;;;;;;5052595;28;20454;-67
2022/12/07 11:59:57;;;;;;;11.50;5.10;;;7.40;99.90;;;;;;5052536;28;20469;-66
2022/12/07 12:02:32;;;;;;;7.80;4.90;;;7.70;99.90;;;;;;5052520;28;20955;-66
2022/12/07 12:05:06;;;;;;;10.80;5.47;;;8.10;99.90;;;;;;5052046;28;20999;-66
2022/12/07 12:07:34;;;;;;;13.33;4.73;;;8.10;99.90;;;;;;5052003;28;20454;-66
2022/12/07 12:10:04;;;;;;;9.37;5.00;;;7.90;99.90;;;;;;5052333;28;20456;-66
2022/12/07 12:12:49;;;;;;;9.83;4.40;;;7.80;99.90;;;;;;5051970;28;20500;-66
2022/12/07 12:15:30;;;;;;;7.20;4.30;;;7.60;99.90;;;;;;5051480;28;20927;-66
2022/12/07 12:18:30;;;;;;;8.23;4.17;;;7.50;99.90;;;;;;5051929;28;20939;-66
2022/12/07 12:21:02;;;;;;;15.50;4.73;;;7.30;99.90;;;;;;5051664;28;20475;-66
2022/12/07 12:23:38;;;;;;;9.50;5.43;;;7.20;99.90;;;;;;5051713;28;20940;-66
2022/12/07 12:26:07;;;;;;;8.20;3.73;;;7.10;99.90;;;;;;5051758;28;20815;-66
2022/12/07 12:28:40;;;;;;;8.40;3.47;;;7.10;99.90;;;;;;5051982;28;20444;-66
2022/12/07 12:31:16;;;;;;;10.00;3.43;;;7.00;99.90;;;;;;5051915;28;20445;-66
2022/12/07 12:33:46;;;;;;;4.00;2.67;;;7.10;99.90;;;;;;5051677;28;20819;-66
2022/12/07 12:36:24;;;;;;;6.17;3.17;;;7.30;99.90;;;;;;5051627;28;20538;-66
2022/12/07 12:39:08;;;;;;;5.57;2.97;;;7.60;99.90;;;;;;5051977;28;20482;-66
2022/12/07 12:42:08;;;;;;;6.80;3.20;;;7.80;99.90;;;;;;5051632;28;20449;-66
2022/12/07 12:44:57;;;;;;;10.77;3.60;;;8.00;99.90;;;;;;5051218;28;20464;-66
2022/12/07 12:47:55;;;;;;;8.33;3.40;;;8.20;99.90;;;;;;5051626;28;20497;-66
2022/12/07 12:50:26;;;;;;;9.50;4.33;;;8.40;99.90;;;;;;5051530;28;20504;-66
2022/12/07 12:53:03;;;;;;;7.10;3.40;;;8.50;99.90;;;;;;5051856;28;20539;-66
2022/12/07 12:55:55;;;;;;;9.23;4.17;;;8.50;99.90;;;;;;5051066;28;21025;-67
2022/12/07 12:59:19;;;;;;;6.57;3.50;;;8.30;99.90;;;;;;5051368;28;20968;-66
2022/12/07 13:01:48;;;;;;;8.07;3.30;;;7.90;99.90;;;;;;5028760;28;20467;-66
2022/12/07 13:04:38;;;;;;;6.80;3.10;;;7.70;99.90;;;;;;5050534;28;20468;-66
2022/12/07 13:07:11;;;;;;;10.10;3.70;;;7.60;99.90;;;;;;5051349;28;20453;-66
2022/12/07 13:09:43;;;;;;;9.20;4.47;;;7.70;99.90;;;;;;5051224;28;20474;-66